Terminal Aerodrome Forecast
Issued by NWS

Home | Current Version | Previous Version | Text Only | Print | Product List | Glossary On
Versions: 1 2 3 4 5 6 7 8 9 10 11 12 13 14 15 16 17 18 19 20 21 22
000
FTUS41 KPHI 050520
TAFPNE
TAF
KPNE 050520Z 0506/0606 32008KT 5SM -RA BR SCT035 OVC050
     FM050800 36010G17KT 2SM -SN OVC012
     FM051100 36012KT 1/2SM SN FG OVC005
     FM052100 35010G17KT P6SM OVC020
     FM060200 35010KT P6SM BKN100=

USA.gov is the U.S. government's official web portal to all federal, state and local government web resources and services.